createdAt,value
2018-04-02T00:01:58.805Z,8.12
2018-04-02T00:04:26.979Z,8.02
2018-04-02T00:06:55.139Z,7.92
2018-04-02T00:09:23.322Z,7.87
2018-04-02T00:11:51.505Z,7.82
2018-04-02T00:14:19.696Z,7.75
2018-04-02T00:16:47.851Z,7.75
2018-04-02T00:19:16.054Z,7.65
2018-04-02T00:21:44.223Z,7.59
2018-04-02T00:24:12.386Z,7.56
2018-04-02T00:26:40.559Z,7.48
2018-04-02T00:29:08.738Z,7.48
2018-04-02T00:31:36.914Z,7.37
2018-04-02T00:34:05.120Z,7.31
2018-04-02T00:36:33.302Z,7.24
2018-04-02T00:39:01.465Z,7.26
2018-04-02T00:41:30.423Z,7.20
2018-04-02T00:43:58.616Z,7.12
2018-04-02T00:46:26.779Z,7.09
2018-04-02T00:48:54.989Z,6.98
2018-04-02T00:51:23.921Z,6.93
2018-04-02T00:53:52.084Z,6.88
2018-04-02T00:56:20.243Z,6.85
2018-04-02T00:58:48.404Z,6.78
2018-04-02T01:01:16.581Z,6.80
2018-04-02T01:03:45.520Z,6.69
2018-04-02T01:06:13.712Z,6.62
2018-04-02T01:08:41.896Z,6.59
2018-04-02T01:11:10.063Z,6.53
2018-04-02T01:13:38.243Z,6.50
2018-04-02T01:16:06.408Z,6.45
2018-04-02T01:18:34.575Z,6.41
2018-04-02T01:21:02.743Z,6.38
2018-04-02T01:23:30.905Z,6.26
2018-04-02T01:25:59.093Z,6.26
2018-04-02T01:28:27.271Z,6.27
2018-04-02T01:30:55.447Z,6.17
2018-04-02T01:33:23.611Z,6.10
2018-04-02T01:35:52.102Z,6.08
2018-04-02T01:38:20.274Z,6.07
2018-04-02T01:40:49.225Z,6.02
2018-04-02T01:43:17.382Z,5.90
2018-04-02T01:45:46.321Z,5.86
2018-04-02T01:48:14.483Z,5.81
2018-04-02T01:50:42.699Z,5.83
2018-04-02T01:53:10.949Z,5.79
2018-04-02T01:55:39.126Z,5.79
2018-04-02T01:58:07.295Z,5.83
2018-04-02T02:00:35.469Z,5.78
2018-04-02T02:03:03.646Z,5.77
2018-04-02T02:05:31.806Z,5.77
2018-04-02T02:07:59.991Z,5.82
2018-04-02T02:10:28.165Z,5.82
2018-04-02T02:12:56.357Z,5.77
2018-04-02T02:15:24.522Z,5.72
2018-04-02T02:17:52.706Z,5.79
2018-04-02T02:20:20.883Z,5.74
2018-04-02T02:22:49.106Z,5.64
2018-04-02T02:25:17.262Z,5.54
2018-04-02T02:27:45.427Z,5.43
2018-04-02T02:30:13.606Z,5.43
2018-04-02T02:32:42.552Z,5.37
2018-04-02T02:35:10.720Z,5.29
2018-04-02T02:37:38.886Z,5.28
2018-04-02T02:40:07.048Z,5.28
2018-04-02T02:42:35.232Z,5.13
2018-04-02T02:45:03.421Z,5.19
2018-04-02T02:47:31.601Z,5.28
2018-04-02T02:49:59.772Z,5.38
2018-04-02T02:52:27.943Z,5.25
2018-04-02T02:54:56.118Z,5.20
2018-04-02T02:57:24.293Z,5.13
2018-04-02T02:59:52.460Z,5.13
2018-04-02T03:02:20.623Z,5.12
2018-04-02T03:04:48.800Z,4.94
2018-04-02T03:07:17.198Z,5.00
2018-04-02T03:09:45.353Z,5.02
2018-04-02T03:12:13.515Z,5.06
2018-04-02T03:14:41.686Z,5.08
2018-04-02T03:17:10.642Z,5.11
2018-04-02T03:19:38.834Z,5.12
2018-04-02T03:22:07.771Z,5.06
2018-04-02T03:24:35.933Z,4.97
2018-04-02T03:27:04.097Z,4.92
2018-04-02T03:29:32.267Z,4.93
2018-04-02T03:32:01.192Z,4.90
2018-04-02T03:34:29.364Z,4.90
2018-04-02T03:36:57.542Z,4.82
2018-04-02T03:39:25.714Z,4.72
2018-04-02T03:41:53.871Z,4.69
2018-04-02T03:44:22.062Z,4.67
2018-04-02T03:46:50.234Z,4.66
2018-04-02T03:49:18.393Z,4.64
2018-04-02T03:51:46.700Z,4.70
2018-04-02T03:54:14.865Z,4.53
2018-04-02T03:56:43.038Z,4.45
2018-04-02T03:59:11.203Z,4.43
2018-04-02T04:01:39.363Z,4.39
2018-04-02T04:04:07.533Z,4.33
2018-04-02T04:06:35.726Z,4.29
2018-04-02T04:09:03.950Z,4.21
2018-04-02T04:11:32.122Z,4.19
2018-04-02T04:14:00.306Z,4.13
2018-04-02T04:16:28.470Z,4.08
2018-04-02T04:18:56.637Z,4.08
2018-04-02T04:21:24.813Z,4.07
2018-04-02T04:23:52.970Z,4.03
2018-04-02T04:26:21.133Z,4.03
2018-04-02T04:28:49.295Z,3.95
2018-04-02T04:31:17.460Z,3.94
2018-04-02T04:33:45.665Z,3.95
2018-04-02T04:36:13.839Z,3.99
2018-04-02T04:38:41.993Z,3.93
2018-04-02T04:41:10.180Z,3.95
2018-04-02T04:43:38.342Z,3.88
2018-04-02T04:46:06.493Z,3.84
2018-04-02T04:48:35.524Z,3.85
2018-04-02T04:51:03.711Z,3.91
2018-04-02T04:53:32.657Z,3.91
2018-04-02T04:56:01.598Z,3.88
2018-04-02T04:58:29.782Z,3.91
2018-04-02T05:00:57.939Z,3.86
2018-04-02T05:03:26.126Z,3.86
2018-04-02T05:05:54.307Z,3.89
2018-04-02T05:08:22.477Z,3.94
2018-04-02T05:10:50.672Z,3.99
2018-04-02T05:13:18.850Z,4.01
2018-04-02T05:15:47.016Z,4.09
2018-04-02T05:18:15.177Z,4.15
2018-04-02T05:20:43.338Z,4.24
2018-04-02T05:23:11.510Z,4.29
2018-04-02T05:25:39.752Z,4.33
2018-04-02T05:28:07.893Z,4.42
2018-04-02T05:30:36.059Z,4.49
2018-04-02T05:33:04.230Z,4.58
2018-04-02T05:35:32.404Z,4.69
2018-04-02T05:38:00.574Z,4.79
2018-04-02T05:40:28.757Z,4.83
2018-04-02T05:42:56.923Z,4.99
2018-04-02T05:45:25.111Z,5.04
2018-04-02T05:47:53.277Z,5.10
2018-04-02T05:50:21.448Z,5.21
2018-04-02T05:52:49.611Z,5.27
2018-04-02T05:55:17.779Z,5.27
2018-04-02T05:57:45.956Z,5.29
2018-04-02T06:00:14.150Z,5.43
2018-04-02T06:02:42.311Z,5.58
2018-04-02T06:05:10.486Z,5.72
2018-04-02T06:07:38.650Z,5.91
2018-04-02T06:10:06.840Z,6.03
2018-04-02T06:12:35.022Z,6.05
2018-04-02T06:15:03.202Z,6.10
2018-04-02T06:17:31.409Z,6.33
2018-04-02T06:20:00.335Z,6.41
2018-04-02T06:22:28.569Z,6.61
2018-04-02T06:24:56.703Z,6.82
2018-04-02T06:27:24.880Z,6.79
2018-04-02T06:29:53.047Z,6.89
2018-04-02T06:32:21.214Z,7.00
2018-04-02T06:34:49.394Z,7.00
2018-04-02T06:37:17.567Z,7.11
2018-04-02T06:39:45.747Z,7.24
2018-04-02T06:42:13.931Z,7.45
2018-04-02T06:44:42.089Z,7.52
2018-04-02T06:47:10.263Z,7.61
2018-04-02T06:49:38.428Z,7.76
2018-04-02T06:52:06.589Z,7.86
2018-04-02T06:54:34.777Z,7.97
2018-04-02T06:57:02.946Z,8.10
2018-04-02T06:59:31.120Z,8.28
2018-04-02T07:01:59.298Z,8.44
2018-04-02T07:04:27.466Z,8.65
2018-04-02T07:06:55.631Z,8.80
2018-04-02T07:09:23.790Z,8.98
2018-04-02T07:11:52.726Z,9.15
2018-04-02T07:14:20.888Z,9.29
2018-04-02T07:16:49.072Z,9.48
2018-04-02T07:19:17.237Z,9.64
2018-04-02T07:21:45.391Z,9.71
2018-04-02T07:24:13.590Z,9.74
2018-04-02T07:26:41.762Z,9.86
2018-04-02T07:29:09.933Z,9.93
2018-04-02T07:31:38.091Z,10.06
2018-04-02T07:34:06.253Z,10.14
2018-04-02T07:36:35.188Z,10.29
2018-04-02T07:39:03.421Z,10.41
2018-04-02T07:41:32.347Z,10.51
2018-04-02T07:44:00.525Z,10.52
2018-04-02T07:46:28.695Z,10.59
2018-04-02T07:48:56.883Z,10.60
2018-04-02T07:51:25.077Z,10.78
2018-04-02T07:53:53.243Z,10.85
2018-04-02T07:56:22.213Z,10.98
2018-04-02T07:58:50.391Z,11.02
2018-04-02T08:01:18.570Z,11.12
2018-04-02T08:03:46.749Z,11.30
2018-04-02T08:06:14.947Z,11.44
2018-04-02T08:08:43.121Z,11.60
2018-04-02T08:11:11.306Z,11.58
2018-04-02T08:13:39.466Z,11.42
2018-04-02T08:16:07.711Z,11.31
2018-04-02T08:18:36.621Z,11.38
2018-04-02T08:21:04.785Z,11.41
2018-04-02T08:23:32.972Z,11.45
2018-04-02T08:26:01.917Z,11.39
2018-04-02T08:28:30.097Z,11.38
2018-04-02T08:30:58.284Z,11.17
2018-04-02T08:33:26.448Z,11.06
2018-04-02T08:35:54.641Z,10.99
2018-04-02T08:38:22.806Z,10.95
2018-04-02T08:40:50.990Z,10.92
2018-04-02T08:43:19.196Z,10.93
2018-04-02T08:45:48.131Z,10.99
2018-04-02T08:48:17.064Z,11.16
2018-04-02T08:50:45.226Z,11.27
2018-04-02T08:53:13.400Z,11.47
2018-04-02T08:55:41.583Z,11.59
2018-04-02T08:58:09.751Z,11.74
2018-04-02T09:00:37.938Z,11.92
2018-04-02T09:03:06.131Z,12.14
2018-04-02T09:05:34.297Z,12.31
2018-04-02T09:08:02.471Z,12.61
2018-04-02T09:10:30.644Z,12.92
2018-04-02T09:12:58.817Z,13.03
2018-04-02T09:15:27.013Z,13.17
2018-04-02T09:17:55.978Z,13.18
2018-04-02T09:20:24.150Z,13.18
2018-04-02T09:22:52.343Z,13.37
2018-04-02T09:25:20.517Z,13.67
2018-04-02T09:27:48.701Z,13.74
2018-04-02T09:30:16.865Z,13.95
2018-04-02T09:32:45.061Z,13.94
2018-04-02T09:35:14.005Z,14.09
2018-04-02T09:37:42.243Z,14.25
2018-04-02T09:40:11.182Z,14.49
2018-04-02T09:42:39.374Z,14.31
2018-04-02T09:45:07.579Z,14.57
2018-04-02T09:47:36.522Z,15.05
2018-04-02T09:50:04.698Z,15.33
2018-04-02T09:52:32.873Z,15.31
2018-04-02T09:55:01.047Z,15.28
2018-04-02T09:57:29.222Z,15.80
2018-04-02T09:59:57.401Z,15.63
2018-04-02T10:02:25.591Z,15.34
2018-04-02T10:04:56.665Z,15.27
2018-04-02T10:07:24.746Z,15.37
2018-04-02T10:09:53.733Z,15.68
2018-04-02T10:12:21.899Z,16.04
2018-04-02T10:14:50.847Z,16.43
2018-04-02T10:17:19.020Z,16.45
2018-04-02T10:19:47.212Z,16.68
2018-04-02T10:22:15.397Z,16.80
2018-04-02T10:24:43.581Z,17.35
2018-04-02T10:27:11.746Z,17.48
2018-04-02T10:29:39.973Z,17.98
2018-04-02T10:32:08.920Z,17.25
2018-04-02T10:34:37.084Z,17.72
2018-04-02T10:37:05.327Z,17.84
2018-04-02T10:39:33.495Z,17.56
2018-04-02T10:42:01.673Z,18.15
2018-04-02T10:44:29.858Z,18.87
2018-04-02T10:46:58.031Z,18.95
2018-04-02T10:49:26.213Z,18.79
2018-04-02T10:51:54.398Z,19.05
2018-04-02T10:54:22.585Z,19.01
2018-04-02T10:56:50.753Z,19.12
2018-04-02T10:59:18.930Z,19.80
2018-04-02T11:01:47.115Z,20.33
2018-04-02T11:04:15.292Z,19.52
2018-04-02T11:06:43.459Z,19.50
2018-04-02T11:09:11.642Z,19.47
2018-04-02T11:11:39.811Z,20.16
2018-04-02T11:14:07.984Z,20.97
2018-04-02T11:16:36.194Z,20.91
2018-04-02T11:19:05.136Z,21.26
2018-04-02T11:21:33.309Z,21.69
2018-04-02T11:24:01.490Z,21.75
2018-04-02T11:26:29.735Z,22.03
2018-04-02T11:28:57.961Z,21.47
2018-04-02T11:31:26.118Z,21.65
2018-04-02T11:33:54.305Z,21.60
2018-04-02T11:36:22.491Z,21.21
2018-04-02T11:38:51.432Z,21.58
2018-04-02T11:41:19.611Z,21.71
2018-04-02T11:43:47.782Z,22.58
2018-04-02T11:46:16.750Z,23.01
2018-04-02T11:48:44.965Z,23.53
2018-04-02T11:51:13.135Z,23.86
2018-04-02T11:53:41.299Z,24.36
2018-04-02T11:56:09.499Z,24.39
2018-04-02T11:58:37.671Z,23.00
2018-04-02T12:01:05.862Z,23.37
2018-04-02T12:03:34.066Z,24.09
2018-04-02T12:06:03.018Z,24.76
2018-04-02T12:08:31.191Z,25.81
2018-04-02T12:10:59.383Z,26.90
2018-04-02T12:13:27.554Z,27.85
2018-04-02T12:15:55.731Z,29.00
2018-04-02T12:18:23.910Z,30.45
2018-04-02T12:20:52.115Z,32.60
2018-04-02T12:23:21.040Z,34.47
2018-04-02T12:25:49.231Z,36.29
2018-04-02T12:28:17.417Z,37.58
2018-04-02T12:30:45.617Z,38.32
2018-04-02T12:33:14.580Z,36.26
2018-04-02T12:35:42.757Z,37.68
2018-04-02T12:38:11.730Z,39.86
2018-04-02T12:40:39.926Z,40.91
2018-04-02T12:43:08.123Z,42.10
2018-04-02T12:45:37.071Z,43.42
2018-04-02T12:48:05.243Z,44.56
2018-04-02T12:50:33.421Z,42.57
2018-04-02T12:53:01.733Z,41.70
2018-04-02T12:55:30.679Z,41.74
2018-04-02T12:57:58.856Z,42.20
2018-04-02T13:00:27.034Z,43.05
2018-04-02T13:02:55.204Z,40.74
2018-04-02T13:05:23.376Z,38.00
2018-04-02T13:07:51.562Z,40.02
2018-04-02T13:10:19.747Z,41.41
2018-04-02T13:12:47.932Z,41.64
2018-04-02T13:15:16.111Z,41.98
2018-04-02T13:17:44.286Z,41.97
2018-04-02T13:20:12.460Z,42.06
2018-04-02T13:22:40.646Z,41.87
2018-04-02T13:25:08.823Z,42.09
2018-04-02T13:27:36.990Z,43.40
2018-04-02T13:30:05.162Z,42.05
2018-04-02T13:32:33.373Z,41.33
2018-04-02T13:35:01.557Z,41.13
2018-04-02T13:37:29.723Z,40.71
2018-04-02T13:39:57.894Z,41.04
2018-04-02T13:42:26.067Z,41.07
2018-04-02T13:44:54.998Z,41.89
2018-04-02T13:47:23.209Z,42.98
2018-04-02T13:49:51.376Z,43.34
2018-04-02T13:52:19.556Z,43.34
2018-04-02T13:54:47.770Z,44.10
2018-04-02T13:57:15.945Z,44.55
2018-04-02T13:59:44.113Z,44.25
2018-04-02T14:02:12.283Z,44.65
2018-04-02T14:04:41.240Z,45.39
2018-04-02T14:07:09.427Z,45.17
2018-04-02T14:09:38.404Z,45.90
2018-04-02T14:12:06.572Z,45.06
2018-04-02T14:14:34.748Z,45.04
2018-04-02T14:17:02.940Z,42.84
2018-04-02T14:19:31.227Z,41.49
2018-04-02T14:22:00.170Z,41.53
2018-04-02T14:24:28.341Z,41.85
2018-04-02T14:26:56.518Z,41.99
2018-04-02T14:29:24.709Z,41.53
2018-04-02T14:31:52.898Z,41.75
2018-04-02T14:34:21.072Z,42.19
2018-04-02T14:36:49.261Z,42.02
2018-04-02T14:39:17.432Z,42.44
2018-04-02T14:41:45.598Z,41.61
2018-04-02T14:44:13.790Z,41.01
2018-04-02T14:46:42.725Z,40.74
2018-04-02T14:49:10.903Z,40.94
2018-04-02T14:51:39.079Z,41.39
2018-04-02T14:54:07.265Z,41.09
2018-04-02T14:56:35.439Z,42.11
2018-04-02T14:59:03.600Z,41.79
2018-04-02T15:01:31.769Z,40.79
2018-04-02T15:03:59.967Z,39.53
2018-04-02T15:06:28.142Z,39.61
2018-04-02T15:08:56.311Z,37.30
2018-04-02T15:11:24.500Z,37.22
2018-04-02T15:13:52.673Z,37.68
2018-04-02T15:16:20.861Z,38.27
2018-04-02T15:18:49.048Z,38.41
2018-04-02T15:21:18.090Z,38.42
2018-04-02T15:23:46.263Z,38.37
2018-04-02T15:26:14.433Z,37.59
2018-04-02T15:28:42.601Z,37.15
2018-04-02T15:31:10.769Z,36.77
2018-04-02T15:33:38.940Z,36.03
2018-04-02T15:36:07.981Z,35.64
2018-04-02T15:38:36.159Z,35.28
2018-04-02T15:41:04.346Z,34.28
2018-04-02T15:43:32.564Z,32.98
2018-04-02T15:46:00.762Z,32.67
2018-04-02T15:48:28.945Z,32.38
2018-04-02T15:50:57.157Z,31.74
2018-04-02T15:53:25.316Z,30.56
2018-04-02T15:55:53.481Z,30.58
2018-04-02T15:58:21.650Z,30.21
2018-04-02T16:00:49.832Z,29.91
2018-04-02T16:03:18.006Z,29.46
2018-04-02T16:05:46.172Z,28.59
2018-04-02T16:08:14.357Z,28.08
2018-04-02T16:10:42.702Z,27.70
2018-04-02T16:13:11.626Z,27.36
2018-04-02T16:15:39.814Z,26.74
2018-04-02T16:18:07.991Z,25.79
2018-04-02T16:20:36.178Z,25.08
2018-04-02T16:23:05.130Z,24.81
2018-04-02T16:25:33.329Z,23.67
2018-04-02T16:28:01.522Z,23.53
2018-04-02T16:30:30.459Z,23.28
2018-04-02T16:32:58.688Z,22.95
2018-04-02T16:35:27.784Z,22.75
2018-04-02T16:37:56.948Z,22.30
2018-04-02T16:40:25.150Z,22.14
2018-04-02T16:42:53.326Z,21.74
2018-04-02T16:45:21.505Z,21.72
2018-04-02T16:47:50.454Z,21.44
2018-04-02T16:50:18.677Z,21.17
2018-04-02T16:52:47.619Z,20.98
2018-04-02T16:55:15.785Z,20.77
2018-04-02T16:57:43.973Z,20.62
2018-04-02T17:00:12.151Z,20.50
2018-04-02T17:02:40.321Z,20.56
2018-04-02T17:05:08.522Z,20.50
2018-04-02T17:07:36.700Z,20.17
2018-04-02T17:10:04.878Z,20.18
2018-04-02T17:12:33.852Z,20.03
2018-04-02T17:15:02.018Z,19.74
2018-04-02T17:17:30.232Z,19.40
2018-04-02T17:19:59.202Z,19.05
2018-04-02T17:22:27.372Z,18.86
2018-04-02T17:24:55.562Z,18.65
2018-04-02T17:27:23.759Z,18.50
2018-04-02T17:29:52.727Z,18.43
2018-04-02T17:32:20.902Z,18.38
2018-04-02T17:34:50.147Z,18.21
2018-04-02T17:37:18.361Z,18.24
2018-04-02T17:39:46.542Z,18.03
2018-04-02T17:42:14.733Z,17.68
2018-04-02T17:44:42.926Z,17.52
2018-04-02T17:47:11.871Z,17.33
2018-04-02T17:49:40.087Z,17.18
2018-04-02T17:52:09.035Z,17.19
2018-04-02T17:54:37.259Z,17.07
2018-04-02T17:57:06.219Z,16.87
2018-04-02T17:59:34.432Z,16.76
2018-04-02T18:02:03.383Z,16.53
2018-04-02T18:04:31.567Z,16.48
2018-04-02T18:06:59.819Z,16.29
2018-04-02T18:09:28.272Z,16.20
2018-04-02T18:11:56.465Z,16.22
2018-04-02T18:14:24.655Z,16.22
2018-04-02T18:16:52.851Z,16.01
2018-04-02T18:19:21.042Z,15.79
2018-04-02T18:21:49.253Z,15.68
2018-04-02T18:24:17.429Z,15.56
2018-04-02T18:26:45.598Z,15.53
2018-04-02T18:29:13.767Z,15.40
2018-04-02T18:31:41.944Z,15.19
2018-04-02T18:34:10.209Z,15.15
2018-04-02T18:36:39.173Z,15.14
2018-04-02T18:39:07.363Z,15.13
2018-04-02T18:41:36.326Z,14.92
2018-04-02T18:44:04.507Z,14.77
2018-04-02T18:46:32.721Z,14.61
2018-04-02T18:49:01.688Z,14.44
2018-04-02T18:51:29.871Z,14.42
2018-04-02T18:53:58.047Z,14.41
2018-04-02T18:56:27.004Z,14.37
2018-04-02T18:58:55.178Z,14.31
2018-04-02T19:01:23.353Z,14.23
2018-04-02T19:03:51.538Z,14.08
2018-04-02T19:06:19.716Z,14.13
2018-04-02T19:08:47.917Z,14.12
2018-04-02T19:11:16.858Z,14.08
2018-04-02T19:13:45.224Z,14.03
2018-04-02T19:16:13.420Z,14.00
2018-04-02T19:18:41.598Z,13.84
2018-04-02T19:21:09.767Z,13.80
2018-04-02T19:23:37.963Z,13.83
2018-04-02T19:26:06.130Z,13.70
2018-04-02T19:28:34.375Z,13.63
2018-04-02T19:31:02.563Z,13.70
2018-04-02T19:33:30.742Z,13.70
2018-04-02T19:35:58.927Z,13.56
2018-04-02T19:38:27.130Z,13.58
2018-04-02T19:40:55.338Z,13.38
2018-04-02T19:43:23.603Z,13.26
2018-04-02T19:45:53.370Z,13.18
2018-04-02T19:48:21.546Z,13.15
2018-04-02T19:50:49.717Z,13.20
2018-04-02T19:53:17.923Z,13.01
2018-04-02T19:55:46.864Z,12.88
2018-04-02T19:58:15.047Z,12.88
2018-04-02T20:00:43.233Z,12.84
2018-04-02T20:03:11.414Z,12.70
2018-04-02T20:05:39.602Z,12.73
2018-04-02T20:08:07.802Z,12.56
2018-04-02T20:10:36.027Z,12.50
2018-04-02T20:13:04.216Z,12.52
2018-04-02T20:15:32.414Z,12.45
2018-04-02T20:18:01.369Z,12.63
2018-04-02T20:20:32.267Z,12.46
2018-04-02T20:23:00.500Z,12.36
2018-04-02T20:25:28.677Z,12.44
2018-04-02T20:27:56.853Z,12.43
2018-04-02T20:30:25.089Z,12.39
2018-04-02T20:32:53.286Z,12.23
2018-04-02T20:35:21.472Z,12.24
2018-04-02T20:37:49.664Z,12.27
2018-04-02T20:40:17.863Z,12.29
2018-04-02T20:42:46.813Z,12.13
2018-04-02T20:45:15.012Z,12.00
2018-04-02T20:47:43.967Z,11.97
2018-04-02T20:50:12.164Z,12.04
2018-04-02T20:52:40.388Z,11.95
2018-04-02T20:55:08.580Z,11.91
2018-04-02T20:57:36.761Z,11.82
2018-04-02T21:00:04.961Z,11.70
2018-04-02T21:02:33.172Z,11.63
2018-04-02T21:05:02.120Z,11.69
2018-04-02T21:07:30.295Z,11.49
2018-04-02T21:09:58.488Z,11.44
2018-04-02T21:12:26.681Z,11.48
2018-04-02T21:14:55.631Z,11.42
2018-04-02T21:17:23.830Z,11.35
2018-04-02T21:19:52.794Z,11.26
2018-04-02T21:22:20.968Z,11.28
2018-04-02T21:24:49.143Z,11.27
2018-04-02T21:27:17.314Z,11.23
2018-04-02T21:29:45.490Z,11.21
2018-04-02T21:32:13.662Z,11.11
2018-04-02T21:34:41.844Z,11.09
2018-04-02T21:37:10.059Z,11.17
2018-04-02T21:39:39.000Z,11.17
2018-04-02T21:42:07.188Z,11.08
2018-04-02T21:44:35.361Z,11.00
2018-04-02T21:47:03.534Z,10.94
2018-04-02T21:49:31.707Z,10.77
2018-04-02T21:51:59.872Z,10.82
2018-04-02T21:54:28.049Z,10.74
2018-04-02T21:56:56.239Z,10.70
2018-04-02T21:59:25.181Z,10.67
2018-04-02T22:01:54.140Z,10.71
2018-04-02T22:04:22.322Z,10.69
2018-04-02T22:07:04.230Z,10.65
2018-04-02T22:09:33.252Z,10.61
2018-04-02T22:12:01.424Z,10.67
2018-04-02T22:14:29.629Z,10.62
2018-04-02T22:16:57.823Z,10.57
2018-04-02T22:19:25.998Z,10.57
2018-04-02T22:21:54.190Z,10.56
2018-04-02T22:24:22.363Z,10.58
2018-04-02T22:26:50.542Z,10.57
2018-04-02T22:29:18.722Z,10.72
2018-04-02T22:31:46.911Z,10.71
2018-04-02T22:34:15.865Z,10.70
2018-04-02T22:36:44.054Z,10.70
2018-04-02T22:39:12.248Z,10.78
2018-04-02T22:41:41.216Z,10.79
2018-04-02T22:44:09.392Z,10.82
2018-04-02T22:46:37.574Z,10.90
2018-04-02T22:49:05.755Z,10.92
2018-04-02T22:51:34.706Z,10.96
2018-04-02T22:54:02.882Z,11.10
2018-04-02T22:56:31.048Z,11.02
2018-04-02T22:58:59.224Z,11.03
2018-04-02T23:01:27.401Z,11.06
2018-04-02T23:03:55.592Z,11.20
2018-04-02T23:06:23.810Z,11.24
2018-04-02T23:08:52.772Z,11.33
2018-04-02T23:11:20.943Z,11.20
2018-04-02T23:13:49.118Z,11.28
2018-04-02T23:16:17.310Z,11.31
2018-04-02T23:18:46.257Z,11.25
2018-04-02T23:21:14.443Z,11.16
2018-04-02T23:23:42.621Z,11.08
2018-04-02T23:26:10.832Z,11.02
2018-04-02T23:28:39.775Z,10.94
2018-04-02T23:31:07.945Z,10.98
2018-04-02T23:33:36.205Z,10.99
2018-04-02T23:36:04.340Z,10.84
2018-04-02T23:38:32.515Z,10.77
2018-04-02T23:41:00.688Z,10.72
2018-04-02T23:43:29.643Z,10.77
2018-04-02T23:45:57.818Z,10.78
2018-04-02T23:48:25.992Z,10.79
2018-04-02T23:50:54.297Z,10.81
2018-04-02T23:53:22.481Z,10.81
2018-04-02T23:55:50.663Z,10.77
2018-04-02T23:58:19.613Z,10.79
